createdAt,value
2023-04-16T00:00:54.046Z,21.1061
2023-04-16T00:01:56.962Z,21.1038
2023-04-16T00:02:59.446Z,21.1022
2023-04-16T00:04:01.989Z,21.1050
2023-04-16T00:05:04.415Z,21.1097
2023-04-16T00:06:07.015Z,21.1114
2023-04-16T00:07:09.514Z,21.1093
2023-04-16T00:08:12.116Z,21.1096
2023-04-16T00:09:14.685Z,21.1084
2023-04-16T00:10:17.339Z,21.1061
2023-04-16T00:11:19.839Z,21.1034
2023-04-16T00:12:22.483Z,21.1050
2023-04-16T00:13:24.993Z,21.1050
2023-04-16T00:14:27.610Z,21.1019
2023-04-16T00:15:30.155Z,21.1016
2023-04-16T00:16:32.849Z,21.0963
2023-04-16T00:17:35.336Z,21.0959
2023-04-16T00:18:38.251Z,21.0997
2023-04-16T00:19:40.496Z,21.1023
2023-04-16T00:20:43.105Z,21.1014
2023-04-16T00:21:45.653Z,21.0991
2023-04-16T00:22:48.328Z,21.0975
2023-04-16T00:23:50.823Z,21.1001
2023-04-16T00:24:53.438Z,21.1002
2023-04-16T00:25:55.990Z,21.1002
2023-04-16T00:26:58.746Z,21.1051
2023-04-16T00:28:01.227Z,21.1058
2023-04-16T00:29:04.031Z,21.1056
2023-04-16T00:30:06.413Z,21.1076
2023-04-16T00:31:09.047Z,21.1080
2023-04-16T00:32:11.569Z,21.1114
2023-04-16T00:33:14.250Z,21.1141
2023-04-16T00:34:16.741Z,21.1168
2023-04-16T00:35:19.341Z,21.1173
2023-04-16T00:36:21.901Z,21.1163
2023-04-16T00:37:25.682Z,21.1128
2023-04-16T00:38:27.064Z,21.1108
2023-04-16T00:39:29.694Z,21.1095
2023-04-16T00:40:32.239Z,21.1053
2023-04-16T00:41:34.848Z,21.1085
2023-04-16T00:42:37.404Z,21.1092
2023-04-16T00:43:40.016Z,21.1099
2023-04-16T00:44:42.586Z,21.1084
2023-04-16T00:45:45.250Z,21.1066
2023-04-16T00:46:47.800Z,21.1075
2023-04-16T00:47:50.363Z,21.1078
2023-04-16T00:48:53.184Z,21.1048
2023-04-16T00:49:55.538Z,21.1019
2023-04-16T00:50:58.070Z,21.1012
2023-04-16T00:52:00.930Z,21.1042
2023-04-16T00:53:03.243Z,21.1049
2023-04-16T00:54:05.833Z,21.1055
2023-04-16T00:55:08.393Z,21.1070
2023-04-16T00:56:11.023Z,21.1055
2023-04-16T00:57:13.623Z,21.1028
2023-04-16T00:58:16.369Z,21.0984
2023-04-16T00:59:18.958Z,21.0988
2023-04-16T01:00:21.348Z,21.1001
2023-04-16T01:01:24.004Z,21.1006
2023-04-16T01:02:26.637Z,21.1024
2023-04-16T01:03:29.391Z,21.1071
2023-04-16T01:04:31.731Z,21.1113
2023-04-16T01:05:34.209Z,21.1172
2023-04-16T01:06:36.813Z,21.1206
2023-04-16T01:07:39.391Z,21.1258
2023-04-16T01:08:42.005Z,21.1281
2023-04-16T01:09:44.535Z,21.1255
2023-04-16T01:10:47.138Z,21.1219
2023-04-16T01:11:49.698Z,21.1200
2023-04-16T01:12:52.305Z,21.1223
2023-04-16T01:13:55.097Z,21.1224
2023-04-16T01:14:57.472Z,21.1197
2023-04-16T01:16:00.101Z,21.1156
2023-04-16T01:17:02.654Z,21.1147
2023-04-16T01:18:05.492Z,21.1140
2023-04-16T01:20:10.357Z,21.1106
2023-04-16T01:21:12.966Z,21.1121
2023-04-16T01:22:15.524Z,21.1162
2023-04-16T01:23:18.129Z,21.1173
2023-04-16T01:24:20.688Z,21.1162
2023-04-16T01:25:23.551Z,21.1142
2023-04-16T01:26:25.856Z,21.1129
2023-04-16T01:27:28.459Z,21.1098
2023-04-16T01:28:31.028Z,21.1101
2023-04-16T01:29:33.669Z,21.1084
2023-04-16T01:30:36.200Z,21.1083
2023-04-16T01:31:38.836Z,21.1102
2023-04-16T01:32:41.399Z,21.1117
2023-04-16T01:33:43.967Z,21.1097
2023-04-16T01:34:46.524Z,21.1068
2023-04-16T01:35:49.152Z,21.1034
2023-04-16T01:36:51.688Z,21.1021
2023-04-16T01:37:54.684Z,21.1025
2023-04-16T01:38:56.867Z,21.0996
2023-04-16T01:39:59.473Z,21.0974
2023-04-16T01:41:02.039Z,21.1006
2023-04-16T01:42:04.786Z,21.1034
2023-04-16T01:43:07.195Z,21.1076
2023-04-16T01:44:09.802Z,21.1067
2023-04-16T01:45:12.364Z,21.1030
2023-04-16T01:46:15.004Z,21.1029
2023-04-16T01:47:17.532Z,21.1010
2023-04-16T01:48:20.137Z,21.1005
2023-04-16T01:49:22.697Z,21.0989
2023-04-16T01:50:25.469Z,21.0940
2023-04-16T01:51:27.872Z,21.0944
2023-04-16T01:52:30.497Z,21.0959
2023-04-16T01:53:33.844Z,21.1004
2023-04-16T01:54:35.846Z,21.1032
2023-04-16T01:55:38.201Z,21.1014
2023-04-16T01:56:40.807Z,21.1005
2023-04-16T01:57:43.529Z,21.0978
2023-04-16T01:58:45.980Z,21.0974
2023-04-16T01:59:48.538Z,21.0980
2023-04-16T02:00:51.163Z,21.0972
2023-04-16T02:01:53.981Z,21.0970
2023-04-16T02:02:56.424Z,21.0981
2023-04-16T02:03:58.937Z,21.0977
2023-04-16T02:05:01.476Z,21.0961
2023-04-16T02:06:04.042Z,21.0942
2023-04-16T02:07:06.788Z,21.0967
2023-04-16T02:08:09.214Z,21.0969
2023-04-16T02:09:11.912Z,21.1009
2023-04-16T02:10:14.658Z,21.1023
2023-04-16T02:11:16.979Z,21.1045
2023-04-16T02:12:19.542Z,21.1064
2023-04-16T02:13:22.385Z,21.1079
2023-04-16T02:14:24.717Z,21.1042
2023-04-16T02:15:27.325Z,21.1046
2023-04-16T02:16:29.908Z,21.1047
2023-04-16T02:17:32.587Z,21.1045
2023-04-16T02:18:35.043Z,21.1015
2023-04-16T02:19:37.649Z,21.0958
2023-04-16T02:20:40.215Z,21.0905
2023-04-16T02:21:42.859Z,21.0850
2023-04-16T02:22:45.383Z,21.0835
2023-04-16T02:23:47.991Z,21.0805
2023-04-16T02:24:50.542Z,21.0745
2023-04-16T02:25:53.158Z,21.0728
2023-04-16T02:26:55.712Z,21.0734
2023-04-16T02:27:58.321Z,21.0735
2023-04-16T02:29:01.144Z,21.0683
2023-04-16T02:30:03.496Z,21.0592
2023-04-16T02:31:06.044Z,21.0547
2023-04-16T02:32:08.964Z,21.0529
2023-04-16T02:33:11.210Z,21.0511
2023-04-16T02:34:13.818Z,21.0498
2023-04-16T02:35:16.382Z,21.0484
2023-04-16T02:36:19.341Z,21.0448
2023-04-16T02:37:21.549Z,21.0423
2023-04-16T02:38:24.202Z,21.0420
2023-04-16T02:39:26.734Z,21.0425
2023-04-16T02:40:29.314Z,21.0407
2023-04-16T02:41:31.895Z,21.0397
2023-04-16T02:42:34.477Z,21.0430
2023-04-16T02:43:37.044Z,21.0501
2023-04-16T02:44:39.659Z,21.0536
2023-04-16T02:45:42.250Z,21.0519
2023-04-16T02:46:44.812Z,21.0533
2023-04-16T02:47:47.410Z,21.0493
2023-04-16T02:48:49.973Z,21.0445
2023-04-16T02:49:52.524Z,21.0429
2023-04-16T02:50:55.129Z,21.0414
2023-04-16T02:51:57.689Z,21.0379
2023-04-16T02:53:00.305Z,21.0374
2023-04-16T02:54:02.860Z,21.0387
2023-04-16T02:55:05.766Z,21.0386
2023-04-16T02:56:08.065Z,21.0363
2023-04-16T02:57:10.633Z,21.0353
2023-04-16T02:58:13.210Z,21.0322
2023-04-16T02:59:15.805Z,21.0299
2023-04-16T03:00:18.352Z,21.0297
2023-04-16T03:01:21.000Z,21.0290
2023-04-16T03:02:23.601Z,21.0261
2023-04-16T03:03:26.284Z,21.0222
2023-04-16T03:04:49.675Z,21.0218
2023-04-16T03:05:31.264Z,21.0196
2023-04-16T03:06:33.907Z,21.0186
2023-04-16T03:07:36.438Z,21.0154
2023-04-16T03:08:39.053Z,21.0122
2023-04-16T03:09:41.695Z,21.0126
2023-04-16T03:10:44.202Z,21.0116
2023-04-16T03:11:46.765Z,21.0115
2023-04-16T03:12:49.372Z,21.0101
2023-04-16T03:13:51.930Z,21.0065
2023-04-16T03:14:54.539Z,21.0026
2023-04-16T03:15:57.111Z,20.9999
2023-04-16T03:16:59.952Z,20.9977
2023-04-16T03:18:02.355Z,20.9950
2023-04-16T03:19:04.881Z,20.9917
2023-04-16T03:20:07.435Z,20.9944
2023-04-16T03:21:10.035Z,20.9953
2023-04-16T03:22:12.596Z,20.9940
2023-04-16T03:23:15.194Z,20.9902
2023-04-16T03:24:17.755Z,20.9867
2023-04-16T03:25:20.364Z,20.9846
2023-04-16T03:26:22.915Z,20.9812
2023-04-16T03:27:25.525Z,20.9782
2023-04-16T03:28:28.092Z,20.9738
2023-04-16T03:29:30.691Z,20.9740
2023-04-16T03:30:33.264Z,20.9741
2023-04-16T03:31:35.901Z,20.9714
2023-04-16T03:32:38.476Z,20.9688
2023-04-16T03:33:41.025Z,20.9676
2023-04-16T03:34:43.586Z,20.9671
2023-04-16T03:35:46.203Z,20.9658
2023-04-16T03:36:48.757Z,20.9645
2023-04-16T03:37:51.358Z,20.9627
2023-04-16T03:38:53.914Z,20.9605
2023-04-16T03:39:56.524Z,20.9596
2023-04-16T03:40:59.079Z,20.9601
2023-04-16T03:42:01.687Z,20.9593
2023-04-16T03:43:04.234Z,20.9572
2023-04-16T03:44:06.841Z,20.9526
2023-04-16T03:45:09.502Z,20.9513
2023-04-16T03:46:12.040Z,20.9490
2023-04-16T03:47:14.573Z,20.9453
2023-04-16T03:48:17.195Z,20.9441
2023-04-16T03:49:19.738Z,20.9449
2023-04-16T03:50:22.335Z,20.9426
2023-04-16T03:51:24.889Z,20.9416
2023-04-16T03:52:27.499Z,20.9411
2023-04-16T03:53:30.054Z,20.9358
2023-04-16T03:54:32.672Z,20.9330
2023-04-16T03:55:35.216Z,20.9352
2023-04-16T03:56:37.799Z,20.9370
2023-04-16T03:57:40.412Z,20.9344
2023-04-16T03:58:42.987Z,20.9311
2023-04-16T03:59:45.569Z,20.9297
2023-04-16T04:00:48.280Z,20.9270
2023-04-16T04:01:50.860Z,20.9248
2023-04-16T04:02:53.437Z,20.9262
2023-04-16T04:03:56.126Z,20.9265
2023-04-16T04:04:58.667Z,20.9266
2023-04-16T04:06:01.051Z,20.9241
2023-04-16T04:07:03.676Z,20.9241
2023-04-16T04:08:06.394Z,20.9230
2023-04-16T04:09:09.037Z,20.9225
2023-04-16T04:10:11.687Z,20.9198
2023-04-16T04:11:13.945Z,20.9170
2023-04-16T04:12:16.553Z,20.9179
2023-04-16T04:13:19.102Z,20.9175
2023-04-16T04:14:21.718Z,20.9129
2023-04-16T04:15:24.259Z,20.9120
2023-04-16T04:16:26.908Z,20.9155
2023-04-16T04:17:29.449Z,20.9136
2023-04-16T04:18:32.038Z,20.9091
2023-04-16T04:19:34.609Z,20.9079
2023-04-16T04:20:37.204Z,20.9073
2023-04-16T04:21:39.751Z,20.9033
2023-04-16T04:22:42.354Z,20.9047
2023-04-16T04:23:44.920Z,20.9061
2023-04-16T04:24:47.522Z,20.9031
2023-04-16T04:25:50.206Z,20.9003
2023-04-16T04:26:52.678Z,20.8985
2023-04-16T04:27:55.237Z,20.8967
2023-04-16T04:28:58.091Z,20.8948
2023-04-16T04:30:00.422Z,20.8953
2023-04-16T04:31:03.022Z,20.8955
2023-04-16T04:32:05.613Z,20.8961
2023-04-16T04:33:08.570Z,20.8940
2023-04-16T04:34:10.797Z,20.8954
2023-04-16T04:35:13.411Z,20.8959
2023-04-16T04:36:15.953Z,20.8955
2023-04-16T04:37:18.569Z,20.8927
2023-04-16T04:38:21.126Z,20.8910
2023-04-16T04:39:23.732Z,20.8891
2023-04-16T04:40:26.295Z,20.8892
2023-04-16T04:41:28.919Z,20.8888
2023-04-16T04:42:31.459Z,20.8900
2023-04-16T04:43:34.057Z,20.8890
2023-04-16T04:44:36.622Z,20.8893
2023-04-16T04:45:39.388Z,20.8895
2023-04-16T04:46:41.773Z,20.8923
2023-04-16T04:47:44.398Z,20.8926
2023-04-16T04:48:46.961Z,20.8922
2023-04-16T04:49:49.544Z,20.8910
2023-04-16T04:50:52.102Z,20.8927
2023-04-16T04:51:54.713Z,20.8908
2023-04-16T04:52:57.444Z,20.8925
2023-04-16T04:53:59.870Z,20.8918
2023-04-16T04:55:02.448Z,20.8879
2023-04-16T04:56:11.792Z,20.8867
2023-04-16T04:57:08.590Z,20.8854
2023-04-16T04:58:10.196Z,20.8868
2023-04-16T04:59:12.759Z,20.8864
2023-04-16T05:00:15.365Z,20.8867
2023-04-16T05:01:17.947Z,20.8867
2023-04-16T05:02:20.807Z,20.8869
2023-04-16T05:03:23.180Z,20.8861
2023-04-16T05:04:25.705Z,20.8850
2023-04-16T05:05:28.285Z,20.8838
2023-04-16T05:06:30.911Z,20.8819
2023-04-16T05:07:33.418Z,20.8775
2023-04-16T05:08:36.253Z,20.8742
2023-04-16T05:09:38.594Z,20.8749
2023-04-16T05:10:41.195Z,20.8751
2023-04-16T05:11:43.754Z,20.8724
2023-04-16T05:12:48.243Z,20.8722
2023-04-16T05:13:48.917Z,20.8709
2023-04-16T05:14:51.531Z,20.8736
2023-04-16T05:15:54.317Z,20.8773
2023-04-16T05:16:56.785Z,20.8753
2023-04-16T05:17:59.291Z,20.8752
2023-04-16T05:19:01.872Z,20.8763
2023-04-16T05:20:04.399Z,20.8761
2023-04-16T05:21:07.018Z,20.8736
2023-04-16T05:22:09.573Z,20.8742
2023-04-16T05:23:12.446Z,20.8739
2023-04-16T05:24:15.147Z,20.8738
2023-04-16T05:25:17.359Z,20.8736
2023-04-16T05:26:20.411Z,20.8734
2023-04-16T05:27:22.513Z,20.8699
2023-04-16T05:28:25.069Z,20.8716
2023-04-16T05:29:27.695Z,20.8713
2023-04-16T05:30:30.247Z,20.8703
2023-04-16T05:31:32.840Z,20.8710
2023-04-16T05:32:35.811Z,20.8731
2023-04-16T05:33:38.013Z,20.8715
2023-04-16T05:34:40.559Z,20.8698
2023-04-16T05:35:43.189Z,20.8695
2023-04-16T05:36:45.724Z,20.8683
2023-04-16T05:37:48.337Z,20.8679
2023-04-16T05:38:50.885Z,20.8684
2023-04-16T05:39:53.488Z,20.8673
2023-04-16T05:40:56.057Z,20.8687
2023-04-16T05:41:58.666Z,20.8636
2023-04-16T05:43:01.226Z,20.8617
2023-04-16T05:44:03.834Z,20.8639
2023-04-16T05:45:06.399Z,20.8685
2023-04-16T05:46:09.072Z,20.8700
2023-04-16T05:47:11.560Z,20.8687
2023-04-16T05:48:14.158Z,20.8646
2023-04-16T05:49:16.710Z,20.8639
2023-04-16T05:50:19.330Z,20.8639
2023-04-16T05:51:21.876Z,20.8621
2023-04-16T05:52:24.477Z,20.8596
2023-04-16T05:53:28.260Z,20.8578
2023-04-16T05:54:29.656Z,20.8554
2023-04-16T05:55:32.221Z,20.8555
2023-04-16T05:56:34.813Z,20.8567
2023-04-16T05:57:37.376Z,20.8570
2023-04-16T05:58:39.988Z,20.8559
2023-04-16T05:59:42.545Z,20.8563
2023-04-16T06:00:45.151Z,20.8550
2023-04-16T06:01:47.778Z,20.8537
2023-04-16T06:02:50.456Z,20.8535
2023-04-16T06:03:53.015Z,20.8533
2023-04-16T06:04:55.489Z,20.8520
2023-04-16T06:05:58.177Z,20.8521
2023-04-16T06:07:00.645Z,20.8516
2023-04-16T06:08:03.207Z,20.8531
2023-04-16T06:09:05.816Z,20.8529
2023-04-16T06:10:08.377Z,20.8497
2023-04-16T06:11:10.983Z,20.8485
2023-04-16T06:12:13.549Z,20.8512
2023-04-16T06:13:16.159Z,20.8503
2023-04-16T06:14:18.703Z,20.8509
2023-04-16T06:15:21.318Z,20.8513
2023-04-16T06:16:23.923Z,20.8505
2023-04-16T06:17:26.601Z,20.8544
2023-04-16T06:18:29.039Z,20.8554
2023-04-16T06:19:31.646Z,20.8561
2023-04-16T06:20:34.217Z,20.8597
2023-04-16T06:21:36.817Z,20.8629
2023-04-16T06:22:39.381Z,20.8651
2023-04-16T06:23:42.003Z,20.8663
2023-04-16T06:24:44.541Z,20.8662
2023-04-16T06:25:47.321Z,20.8681
2023-04-16T06:26:49.722Z,20.8663
2023-04-16T06:27:52.323Z,20.8649
2023-04-16T06:28:54.887Z,20.8671
2023-04-16T06:29:57.506Z,20.8666
2023-04-16T06:31:00.117Z,20.8679
2023-04-16T06:32:02.657Z,20.8691
2023-04-16T06:33:05.507Z,20.8720
2023-04-16T06:34:07.858Z,20.8748
2023-04-16T06:35:10.394Z,20.8775
2023-04-16T06:36:13.105Z,20.8792
2023-04-16T06:37:15.553Z,20.8811
2023-04-16T06:38:18.172Z,20.8875
2023-04-16T06:39:20.723Z,20.8936
2023-04-16T06:40:23.350Z,20.8997
2023-04-16T06:41:25.901Z,20.9042
2023-04-16T06:42:28.516Z,20.9064
2023-04-16T06:43:31.106Z,20.9093
2023-04-16T06:44:33.689Z,20.9150
2023-04-16T06:45:36.241Z,20.9228
2023-04-16T06:46:38.907Z,20.9256
2023-04-16T06:47:41.604Z,20.9264
2023-04-16T06:48:44.016Z,20.9287
2023-04-16T06:49:46.575Z,20.9295
2023-04-16T06:50:49.194Z,20.9345
2023-04-16T06:51:51.888Z,20.9386
2023-04-16T06:52:54.357Z,20.9424
2023-04-16T06:53:56.917Z,20.9485
2023-04-16T06:54:59.520Z,20.9503
2023-04-16T06:56:02.283Z,20.9518
2023-04-16T06:57:04.690Z,20.9526
2023-04-16T06:58:07.247Z,20.9533
2023-04-16T06:59:10.069Z,20.9564
2023-04-16T07:00:12.450Z,20.9595
2023-04-16T07:01:15.028Z,20.9600
2023-04-16T07:02:17.697Z,20.9628
2023-04-16T07:03:20.286Z,20.9663
2023-04-16T07:04:22.804Z,20.9690
2023-04-16T07:05:25.351Z,20.9717
2023-04-16T07:06:27.948Z,20.9715
2023-04-16T07:07:30.526Z,20.9709
2023-04-16T07:08:33.111Z,20.9701
2023-04-16T07:09:35.693Z,20.9688
2023-04-16T07:10:38.287Z,20.9701
2023-04-16T07:11:40.839Z,20.9726
2023-04-16T07:12:43.450Z,20.9777
2023-04-16T07:13:46.006Z,20.9796
2023-04-16T07:14:48.608Z,20.9803
2023-04-16T07:15:51.172Z,20.9820
2023-04-16T07:16:53.895Z,20.9824
2023-04-16T07:17:56.418Z,20.9864
2023-04-16T07:18:58.944Z,20.9910
2023-04-16T07:20:01.531Z,20.9916
2023-04-16T07:21:04.106Z,20.9928
2023-04-16T07:22:06.668Z,20.9932
2023-04-16T07:23:09.294Z,20.9959
2023-04-16T07:24:11.832Z,20.9985
2023-04-16T07:25:14.453Z,21.0081
2023-04-16T07:26:17.028Z,21.0184
2023-04-16T07:27:19.623Z,21.0188
2023-04-16T07:28:22.181Z,21.0107
2023-04-16T07:29:24.791Z,21.0073
2023-04-16T07:30:27.356Z,21.0130
2023-04-16T07:31:29.985Z,21.0191
2023-04-16T07:32:32.889Z,21.0273
2023-04-16T07:33:35.122Z,21.0315
2023-04-16T07:34:37.685Z,21.0367
2023-04-16T07:35:40.550Z,21.0372
2023-04-16T07:36:42.861Z,21.0377
2023-04-16T07:37:45.463Z,21.0395
2023-04-16T07:38:48.016Z,21.0391
2023-04-16T07:39:50.628Z,21.0397
2023-04-16T07:40:53.184Z,21.0388
2023-04-16T07:41:55.810Z,21.0396
2023-04-16T07:42:58.354Z,21.0409
2023-04-16T07:44:00.964Z,21.0380
2023-04-16T07:45:03.524Z,21.0358
2023-04-16T07:46:06.225Z,21.0356
2023-04-16T07:47:08.690Z,21.0377
2023-04-16T07:48:11.307Z,21.0402
2023-04-16T07:49:13.868Z,21.0437
2023-04-16T07:50:16.460Z,21.0447
2023-04-16T07:51:19.010Z,21.0453
2023-04-16T07:52:21.621Z,21.0462
2023-04-16T07:53:24.164Z,21.0461
2023-04-16T07:54:28.862Z,21.0459
2023-04-16T07:55:29.334Z,21.0499
2023-04-16T07:56:31.931Z,21.0546
2023-04-16T07:57:34.487Z,21.0588
2023-04-16T07:58:37.150Z,21.0579
2023-04-16T07:59:39.791Z,21.0582
2023-04-16T08:00:42.483Z,21.0608
2023-04-16T08:01:44.809Z,21.0633
2023-04-16T08:02:47.510Z,21.0644
2023-04-16T08:03:50.136Z,21.0666
2023-04-16T08:04:52.731Z,21.0653
2023-04-16T08:05:55.135Z,21.0698
2023-04-16T08:06:57.736Z,21.0709
2023-04-16T08:08:00.295Z,21.0724
2023-04-16T08:09:02.901Z,21.0753
2023-04-16T08:10:05.470Z,21.0760
2023-04-16T08:11:08.058Z,21.0778
2023-04-16T08:12:10.623Z,21.0801
2023-04-16T08:13:13.218Z,21.0794
2023-04-16T08:14:15.777Z,21.0800
2023-04-16T08:15:18.381Z,21.0814
2023-04-16T08:16:20.966Z,21.0815
2023-04-16T08:17:23.693Z,21.0841
2023-04-16T08:18:26.282Z,21.0875
2023-04-16T08:19:28.709Z,21.1042
2023-04-16T08:20:31.286Z,21.1245
2023-04-16T08:21:33.875Z,21.1540
2023-04-16T08:22:36.437Z,21.1832
2023-04-16T08:23:39.033Z,21.0269
2023-04-16T08:24:41.600Z,20.7458
2023-04-16T08:25:44.187Z,20.6440
2023-04-16T08:26:46.761Z,20.7017
2023-04-16T08:27:49.361Z,20.7904
2023-04-16T08:28:51.915Z,20.8665
2023-04-16T08:29:54.532Z,20.9229
2023-04-16T08:30:57.140Z,20.9520
2023-04-16T08:31:59.767Z,20.9738
2023-04-16T08:33:02.275Z,21.0089
2023-04-16T08:34:04.868Z,21.0575
2023-04-16T08:35:07.420Z,21.1201
2023-04-16T08:36:10.020Z,21.1793
2023-04-16T08:37:12.594Z,21.2242
2023-04-16T08:38:15.183Z,21.2538
2023-04-16T08:39:17.813Z,21.2754
2023-04-16T08:40:20.426Z,21.2912
2023-04-16T08:41:22.974Z,21.3028
2023-04-16T08:42:25.585Z,21.3165
2023-04-16T08:43:28.138Z,21.3274
2023-04-16T08:44:30.751Z,21.3367
2023-04-16T08:45:33.314Z,21.3406
2023-04-16T08:46:35.913Z,21.3434
2023-04-16T08:47:38.504Z,21.3433
2023-04-16T08:48:41.066Z,21.3436
2023-04-16T08:49:43.617Z,21.3514
2023-04-16T08:50:46.235Z,21.3680
2023-04-16T08:51:48.785Z,21.3947
2023-04-16T08:52:51.395Z,21.4099
2023-04-16T08:53:53.955Z,21.4443
2023-04-16T08:54:57.247Z,21.4739
2023-04-16T08:55:59.113Z,21.4857
2023-04-16T08:57:01.719Z,21.4918
2023-04-16T08:58:04.273Z,21.4971
2023-04-16T08:59:07.120Z,21.4993
2023-04-16T09:00:09.442Z,21.4983
2023-04-16T09:01:12.044Z,21.4926
2023-04-16T09:02:14.675Z,21.4952
2023-04-16T09:03:17.887Z,21.5059
2023-04-16T09:04:19.827Z,21.5297
2023-04-16T09:05:22.388Z,21.5289
2023-04-16T09:06:24.915Z,21.5327
2023-04-16T09:07:27.536Z,21.5329
2023-04-16T09:08:30.070Z,21.5255
2023-04-16T09:09:34.542Z,21.5283
2023-04-16T09:10:35.237Z,21.5471
2023-04-16T09:11:38.124Z,21.5510
2023-04-16T09:12:40.388Z,21.5369
2023-04-16T09:13:42.990Z,21.5092
2023-04-16T09:14:45.553Z,21.5003
2023-04-16T09:15:48.159Z,21.5125
2023-04-16T09:16:50.731Z,21.5139
2023-04-16T09:17:53.365Z,21.5305
2023-04-16T09:18:55.904Z,21.5375
2023-04-16T09:19:58.484Z,21.5843
2023-04-16T09:21:01.046Z,21.6279
2023-04-16T09:22:03.659Z,21.5801
2023-04-16T09:23:06.201Z,21.5189
2023-04-16T09:24:08.856Z,21.4706
2023-04-16T09:25:11.381Z,21.4354
2023-04-16T09:26:13.981Z,21.4102
2023-04-16T09:27:16.533Z,21.3904
2023-04-16T09:28:19.140Z,21.3774
2023-04-16T09:29:21.686Z,21.3779
2023-04-16T09:30:24.345Z,21.3796
2023-04-16T09:31:26.877Z,21.3779
2023-04-16T09:32:29.519Z,21.3962
2023-04-16T09:33:34.470Z,21.3990
2023-04-16T09:34:34.638Z,21.4069
2023-04-16T09:35:37.189Z,21.4402
2023-04-16T09:36:39.801Z,21.4482
2023-04-16T09:37:42.351Z,21.4290
2023-04-16T09:38:44.961Z,21.3747
2023-04-16T09:39:47.521Z,21.3335
2023-04-16T09:40:50.125Z,21.3240
2023-04-16T09:41:52.687Z,21.3253
2023-04-16T09:42:55.286Z,21.3204
2023-04-16T09:43:57.845Z,21.3439
2023-04-16T09:45:02.645Z,21.3584
2023-04-16T09:46:07.448Z,21.3697
2023-04-16T09:47:06.651Z,21.3635
2023-04-16T09:48:08.178Z,21.3656
2023-04-16T09:49:11.050Z,21.4088
2023-04-16T09:50:14.020Z,21.4987
2023-04-16T09:51:15.948Z,21.5357
2023-04-16T09:52:18.504Z,21.5262
2023-04-16T09:53:21.111Z,21.5296
2023-04-16T09:54:23.670Z,21.4040
2023-04-16T09:55:26.275Z,21.0239
2023-04-16T09:56:28.831Z,20.6005
2023-04-16T09:57:31.445Z,20.1890
2023-04-16T09:58:33.998Z,19.8810
2023-04-16T09:59:36.627Z,19.9464
2023-04-16T10:00:43.167Z,20.1410
2023-04-16T10:01:41.843Z,20.3117
2023-04-16T10:02:44.369Z,20.4458
2023-04-16T10:03:47.155Z,20.5568
2023-04-16T10:04:49.688Z,20.6496
2023-04-16T10:05:52.118Z,20.7266
2023-04-16T10:06:54.666Z,20.7943
2023-04-16T10:07:57.279Z,20.8421
2023-04-16T10:08:59.845Z,20.8778
2023-04-16T10:10:02.464Z,20.9043
2023-04-16T10:11:04.999Z,20.9258
2023-04-16T10:12:07.620Z,20.9410
2023-04-16T10:13:10.185Z,20.9559
2023-04-16T10:14:12.782Z,20.9657
2023-04-16T10:15:15.340Z,20.9758
2023-04-16T10:16:17.989Z,20.9847
2023-04-16T10:17:20.490Z,20.9903
2023-04-16T10:18:23.094Z,20.9935
2023-04-16T10:19:25.660Z,20.9992
2023-04-16T10:20:28.267Z,21.0073
2023-04-16T10:21:30.826Z,21.0166
2023-04-16T10:22:33.425Z,21.0243
2023-04-16T10:23:35.977Z,21.0295
2023-04-16T10:24:38.633Z,21.0357
2023-04-16T10:25:41.149Z,21.0446
2023-04-16T10:26:43.768Z,21.0532
2023-04-16T10:27:46.299Z,21.0586
2023-04-16T10:28:48.908Z,21.0670
2023-04-16T10:29:51.477Z,21.0762
2023-04-16T10:30:54.133Z,21.0815
2023-04-16T10:31:56.616Z,21.0841
2023-04-16T10:33:00.543Z,21.0889
2023-04-16T10:34:01.779Z,21.0975
2023-04-16T10:35:04.392Z,21.1083
2023-04-16T10:36:07.853Z,21.1185
2023-04-16T10:37:09.557Z,21.1276
2023-04-16T10:38:12.103Z,21.1343
2023-04-16T10:39:16.765Z,21.1374
2023-04-16T10:40:17.317Z,21.1413
2023-04-16T10:41:19.881Z,21.1467
2023-04-16T10:42:22.429Z,21.1505
2023-04-16T10:43:25.035Z,21.1520
2023-04-16T10:44:27.578Z,21.1551
2023-04-16T10:45:30.191Z,21.1599
2023-04-16T10:46:32.786Z,21.1674
2023-04-16T10:47:35.384Z,21.1756
2023-04-16T10:48:48.767Z,21.1786
2023-04-16T10:49:41.505Z,21.1822
2023-04-16T10:50:43.076Z,21.1855
2023-04-16T10:51:45.677Z,21.1908
2023-04-16T10:52:48.225Z,21.1932
2023-04-16T10:53:50.826Z,21.1933
2023-04-16T10:54:53.391Z,21.1924
2023-04-16T10:55:56.000Z,21.1877
2023-04-16T10:56:58.559Z,21.1858
2023-04-16T10:58:01.146Z,21.1857
2023-04-16T10:59:03.710Z,21.1824
2023-04-16T11:00:06.316Z,21.1756
2023-04-16T11:01:08.876Z,21.1676
2023-04-16T11:02:11.555Z,21.1606
2023-04-16T11:03:14.087Z,21.1536
2023-04-16T11:04:16.715Z,21.1506
2023-04-16T11:05:19.211Z,21.1486
2023-04-16T11:06:21.810Z,21.1466
2023-04-16T11:07:24.364Z,21.1486
2023-04-16T11:08:26.979Z,21.1493
2023-04-16T11:09:29.528Z,21.1493
2023-04-16T11:10:32.143Z,21.1509
2023-04-16T11:11:34.703Z,21.1525
2023-04-16T11:12:37.504Z,21.1525
2023-04-16T11:13:40.073Z,21.1513
2023-04-16T11:14:42.465Z,21.1508
2023-04-16T11:15:45.087Z,21.1517
2023-04-16T11:16:47.633Z,21.1510
2023-04-16T11:17:50.236Z,21.1482
2023-04-16T11:18:53.946Z,21.1434
2023-04-16T11:19:55.362Z,21.1391
2023-04-16T11:20:57.959Z,21.1350
2023-04-16T11:22:00.538Z,21.1320
2023-04-16T11:23:03.126Z,21.1287
2023-04-16T11:24:05.710Z,21.1275
2023-04-16T11:25:08.289Z,21.1297
2023-04-16T11:26:10.881Z,21.1331
2023-04-16T11:27:13.431Z,21.1383
2023-04-16T11:28:16.047Z,21.1433
2023-04-16T11:29:18.606Z,21.1459
2023-04-16T11:30:21.216Z,21.1438
2023-04-16T11:31:23.806Z,21.1419
2023-04-16T11:32:26.399Z,21.1399
2023-04-16T11:33:28.935Z,21.1372
2023-04-16T11:34:31.541Z,21.1354
2023-04-16T11:35:34.111Z,21.1352
2023-04-16T11:36:36.733Z,21.1367
2023-04-16T11:37:39.268Z,21.1380
2023-04-16T11:38:41.863Z,21.1425
2023-04-16T11:39:44.430Z,21.1467
2023-04-16T11:40:47.036Z,21.1481
2023-04-16T11:41:49.600Z,21.1477
2023-04-16T11:42:52.200Z,21.1499
2023-04-16T11:43:54.797Z,21.1495
2023-04-16T11:44:57.376Z,21.1477
2023-04-16T11:45:59.926Z,21.1441
2023-04-16T11:47:02.591Z,21.1434
2023-04-16T11:48:05.104Z,21.1405
2023-04-16T11:49:07.827Z,21.1395
2023-04-16T11:50:10.265Z,21.1389
2023-04-16T11:51:12.853Z,21.1373
2023-04-16T11:52:15.404Z,21.1367
2023-04-16T11:53:18.031Z,21.1355
2023-04-16T11:54:20.583Z,21.1336
2023-04-16T11:55:23.177Z,21.1314
2023-04-16T11:56:25.743Z,21.1310
2023-04-16T11:57:28.358Z,21.1329
2023-04-16T11:58:30.897Z,21.1365
2023-04-16T11:59:33.508Z,21.1386
2023-04-16T12:00:36.070Z,21.1416
2023-04-16T12:01:38.667Z,21.1443
2023-04-16T12:02:41.362Z,21.1462
2023-04-16T12:03:44.253Z,21.1451
2023-04-16T12:04:46.522Z,21.1457
2023-04-16T12:05:48.992Z,21.1462
2023-04-16T12:06:51.557Z,21.1458
2023-04-16T12:07:54.152Z,21.1444
2023-04-16T12:08:56.710Z,21.1449
2023-04-16T12:09:59.488Z,21.1441
2023-04-16T12:11:01.870Z,21.1462
2023-04-16T12:12:04.480Z,21.1467
2023-04-16T12:13:07.022Z,21.1499
2023-04-16T12:14:09.626Z,21.1537
2023-04-16T12:15:12.182Z,21.1574
2023-04-16T12:16:14.794Z,21.1631
2023-04-16T12:17:17.348Z,21.1686
2023-04-16T12:18:19.972Z,21.1758
2023-04-16T12:19:22.505Z,21.1805
2023-04-16T12:20:25.115Z,21.1834
2023-04-16T12:21:27.668Z,21.1865
2023-04-16T12:22:30.259Z,21.1881
2023-04-16T12:23:32.817Z,21.1882
2023-04-16T12:24:35.415Z,21.1849
2023-04-16T12:25:37.980Z,21.1843
2023-04-16T12:26:40.597Z,21.1833
2023-04-16T12:27:43.149Z,21.1845
2023-04-16T12:28:45.742Z,21.1861
2023-04-16T12:29:48.309Z,21.1890
2023-04-16T12:30:50.940Z,21.1911
2023-04-16T12:31:53.470Z,21.1920
2023-04-16T12:32:59.031Z,21.1927
2023-04-16T12:33:58.664Z,21.1919
2023-04-16T12:35:01.237Z,21.1962
2023-04-16T12:36:03.786Z,21.2036
2023-04-16T12:37:06.398Z,21.2092
2023-04-16T12:38:08.940Z,21.2195